sensor_id;sensor_type;location;lat;lon;timestamp;pressure;altitude;pressure_sealevel;temperature;humidity
26697;BME280;14312;52.614;13.496;2023-10-13T00:02:34;100779.97;;;17.33;65.07
26697;BME280;14312;52.614;13.496;2023-10-13T00:05:20;100768.13;;;17.29;64.96
26697;BME280;14312;52.614;13.496;2023-10-13T00:08:06;100765.97;;;17.31;65.03
26697;BME280;14312;52.614;13.496;2023-10-13T00:10:52;100779.94;;;17.38;65.10
26697;BME280;14312;52.614;13.496;2023-10-13T00:13:38;100756.28;;;17.30;65.03
26697;BME280;14312;52.614;13.496;2023-10-13T00:16:28;100769.69;;;17.40;64.71
26697;BME280;14312;52.614;13.496;2023-10-13T00:19:16;100765.88;;;17.41;65.16
26697;BME280;14312;52.614;13.496;2023-10-13T00:22:06;100776.66;;;17.41;64.99
26697;BME280;14312;52.614;13.496;2023-10-13T00:24:55;100766.78;;;17.32;65.17
26697;BME280;14312;52.614;13.496;2023-10-13T00:27:44;100759.50;;;17.32;65.13
26697;BME280;14312;52.614;13.496;2023-10-13T00:30:30;100764.88;;;17.32;65.13
26697;BME280;14312;52.614;13.496;2023-10-13T00:33:16;100764.84;;;17.37;65.14
26697;BME280;14312;52.614;13.496;2023-10-13T00:36:06;100758.41;;;17.33;65.23
26697;BME280;14312;52.614;13.496;2023-10-13T00:38:53;100748.19;;;17.30;65.16
26697;BME280;14312;52.614;13.496;2023-10-13T00:41:43;100742.75;;;17.35;65.37
26697;BME280;14312;52.614;13.496;2023-10-13T00:44:38;100745.44;;;17.35;65.36
26697;BME280;14312;52.614;13.496;2023-10-13T00:47:31;100747.06;;;17.36;65.64
26697;BME280;14312;52.614;13.496;2023-10-13T00:50:20;100740.88;;;17.36;65.42
26697;BME280;14312;52.614;13.496;2023-10-13T00:53:06;100739.03;;;17.31;65.35
26697;BME280;14312;52.614;13.496;2023-10-13T00:55:53;100735.25;;;17.32;65.34
26697;BME280;14312;52.614;13.496;2023-10-13T00:58:41;100730.16;;;17.31;65.66
26697;BME280;14312;52.614;13.496;2023-10-13T01:01:30;100736.34;;;17.31;65.92
26697;BME280;14312;52.614;13.496;2023-10-13T01:04:18;100735.81;;;17.29;65.18
26697;BME280;14312;52.614;13.496;2023-10-13T01:07:04;100732.03;;;17.30;65.23
26697;BME280;14312;52.614;13.496;2023-10-13T01:09:53;100735.25;;;17.32;65.55
26697;BME280;14312;52.614;13.496;2023-10-13T01:12:40;100740.66;;;17.32;65.34
26697;BME280;14312;52.614;13.496;2023-10-13T01:15:28;100723.41;;;17.28;65.28
26697;BME280;14312;52.614;13.496;2023-10-13T01:18:17;100726.66;;;17.30;65.43
26697;BME280;14312;52.614;13.496;2023-10-13T01:21:04;100728.25;;;17.31;65.25
26697;BME280;14312;52.614;13.496;2023-10-13T01:23:50;100725.03;;;17.29;65.18
26697;BME280;14312;52.614;13.496;2023-10-13T01:26:36;100718.03;;;17.28;65.56
26697;BME280;14312;52.614;13.496;2023-10-13T01:29:26;100719.13;;;17.27;65.68
26697;BME280;14312;52.614;13.496;2023-10-13T01:32:23;100741.19;;;17.29;65.75
26697;BME280;14312;52.614;13.496;2023-10-13T01:35:09;100731.56;;;17.23;65.50
26697;BME280;14312;52.614;13.496;2023-10-13T01:37:55;100718.13;;;17.18;65.75
26697;BME280;14312;52.614;13.496;2023-10-13T01:40:41;100735.91;;;17.19;65.76
26697;BME280;14312;52.614;13.496;2023-10-13T01:43:29;100742.31;;;17.23;65.59
26697;BME280;14312;52.614;13.496;2023-10-13T01:46:15;100731.06;;;17.16;65.99
26697;BME280;14312;52.614;13.496;2023-10-13T01:49:05;100723.59;;;17.08;65.82
26697;BME280;14312;52.614;13.496;2023-10-13T01:52:05;100723.03;;;17.11;65.94
26697;BME280;14312;52.614;13.496;2023-10-13T01:54:51;100730.84;;;17.07;66.59
26697;BME280;14312;52.614;13.496;2023-10-13T01:57:43;100726.06;;;17.04;66.59
26697;BME280;14312;52.614;13.496;2023-10-13T02:00:33;100726.56;;;17.06;66.80
26697;BME280;14312;52.614;13.496;2023-10-13T02:03:25;100723.09;;;17.01;66.99
26697;BME280;14312;52.614;13.496;2023-10-13T02:06:15;100720.44;;;16.96;67.02
26697;BME280;14312;52.614;13.496;2023-10-13T02:09:09;100722.59;;;16.94;67.36
26697;BME280;14312;52.614;13.496;2023-10-13T02:11:58;100728.00;;;16.94;66.83
26697;BME280;14312;52.614;13.496;2023-10-13T02:14:44;100723.69;;;16.93;67.35
26697;BME280;14312;52.614;13.496;2023-10-13T02:17:31;100719.31;;;17.02;67.72
26697;BME280;14312;52.614;13.496;2023-10-13T02:20:26;100717.19;;;16.99;67.80
26697;BME280;14312;52.614;13.496;2023-10-13T02:23:16;100720.44;;;16.96;67.98
26697;BME280;14312;52.614;13.496;2023-10-13T02:26:02;100704.56;;;16.94;68.39
26697;BME280;14312;52.614;13.496;2023-10-13T02:28:58;100687.41;;;16.85;68.39
26697;BME280;14312;52.614;13.496;2023-10-13T02:31:45;100683.91;;;16.84;68.50
26697;BME280;14312;52.614;13.496;2023-10-13T02:34:40;100681.22;;;16.84;68.38
26697;BME280;14312;52.614;13.496;2023-10-13T02:37:29;100676.69;;;16.80;68.62
26697;BME280;14312;52.614;13.496;2023-10-13T02:40:15;100665.63;;;16.81;68.50
26697;BME280;14312;52.614;13.496;2023-10-13T02:43:01;100655.97;;;16.80;68.48
26697;BME280;14312;52.614;13.496;2023-10-13T02:45:54;100672.63;;;16.82;68.83
26697;BME280;14312;52.614;13.496;2023-10-13T02:48:44;100685.50;;;16.86;68.83
26697;BME280;14312;52.614;13.496;2023-10-13T02:51:31;100688.69;;;16.93;68.66
26697;BME280;14312;52.614;13.496;2023-10-13T02:54:21;100680.13;;;16.91;68.71
26697;BME280;14312;52.614;13.496;2023-10-13T02:57:07;100671.78;;;16.87;68.56
26697;BME280;14312;52.614;13.496;2023-10-13T02:59:53;100672.06;;;16.86;68.95
26697;BME280;14312;52.614;13.496;2023-10-13T03:02:57;100680.88;;;16.91;69.22
26697;BME280;14312;52.614;13.496;2023-10-13T03:05:46;100668.28;;;16.87;68.86
26697;BME280;14312;52.614;13.496;2023-10-13T03:08:32;100652.13;;;16.87;68.90
26697;BME280;14312;52.614;13.496;2023-10-13T03:11:18;100652.72;;;16.83;69.13
26697;BME280;14312;52.614;13.496;2023-10-13T03:14:09;100646.75;;;16.87;68.99
26697;BME280;14312;52.614;13.496;2023-10-13T03:17:09;100646.19;;;16.90;69.17
26697;BME280;14312;52.614;13.496;2023-10-13T03:20:00;100633.88;;;16.83;69.35
26697;BME280;14312;52.614;13.496;2023-10-13T03:22:46;100648.03;;;16.94;69.41
26697;BME280;14312;52.614;13.496;2023-10-13T03:25:32;100638.88;;;16.95;69.63
26697;BME280;14312;52.614;13.496;2023-10-13T03:28:28;100628.97;;;16.91;69.28
26697;BME280;14312;52.614;13.496;2023-10-13T03:31:19;100628.91;;;16.96;69.61
26697;BME280;14312;52.614;13.496;2023-10-13T03:34:08;100623.28;;;16.92;69.38
26697;BME280;14312;52.614;13.496;2023-10-13T03:36:58;100616.81;;;16.93;69.69
26697;BME280;14312;52.614;13.496;2023-10-13T03:39:44;100609.53;;;16.94;69.90
26697;BME280;14312;52.614;13.496;2023-10-13T03:42:31;100607.38;;;16.96;69.88
26697;BME280;14312;52.614;13.496;2023-10-13T03:45:17;100602.22;;;16.99;69.71
26697;BME280;14312;52.614;13.496;2023-10-13T03:48:12;100591.22;;;16.96;69.83
26697;BME280;14312;52.614;13.496;2023-10-13T03:51:10;100595.53;;;16.97;70.00
26697;BME280;14312;52.614;13.496;2023-10-13T03:54:00;100600.88;;;17.02;69.70
26697;BME280;14312;52.614;13.496;2023-10-13T03:56:53;100596.56;;;17.01;69.75
26697;BME280;14312;52.614;13.496;2023-10-13T03:59:41;100592.72;;;17.07;69.56
26697;BME280;14312;52.614;13.496;2023-10-13T04:02:32;100593.25;;;17.09;69.85
26697;BME280;14312;52.614;13.496;2023-10-13T04:05:18;100580.59;;;17.09;69.43
26697;BME280;14312;52.614;13.496;2023-10-13T04:08:21;100587.81;;;17.14;69.55
26697;BME280;14312;52.614;13.496;2023-10-13T04:11:25;100580.47;;;17.19;69.65
26697;BME280;14312;52.614;13.496;2023-10-13T04:14:37;100576.72;;;17.20;69.71
26697;BME280;14312;52.614;13.496;2023-10-13T04:17:42;100570.03;;;17.18;69.75
26697;BME280;14312;52.614;13.496;2023-10-13T04:20:31;100568.94;;;17.19;69.89
26697;BME280;14312;52.614;13.496;2023-10-13T04:23:23;100578.25;;;17.27;70.16
26697;BME280;14312;52.614;13.496;2023-10-13T04:26:12;100577.97;;;17.28;70.22
26697;BME280;14312;52.614;13.496;2023-10-13T04:29:07;100570.47;;;17.25;70.65
26697;BME280;14312;52.614;13.496;2023-10-13T04:31:57;100571.03;;;17.22;70.75
26697;BME280;14312;52.614;13.496;2023-10-13T04:34:46;100567.78;;;17.25;71.13
26697;BME280;14312;52.614;13.496;2023-10-13T04:37:32;100556.44;;;17.28;71.52
26697;BME280;14312;52.614;13.496;2023-10-13T04:40:40;100561.81;;;17.28;71.42
26697;BME280;14312;52.614;13.496;2023-10-13T04:43:44;100556.22;;;17.25;71.81
26697;BME280;14312;52.614;13.496;2023-10-13T04:46:41;100553.47;;;17.30;72.07
26697;BME280;14312;52.614;13.496;2023-10-13T04:49:34;100543.50;;;17.30;72.21
26697;BME280;14312;52.614;13.496;2023-10-13T04:52:20;100540.84;;;17.25;72.66
26697;BME280;14312;52.614;13.496;2023-10-13T04:55:49;100535.97;;;17.27;72.63
26697;BME280;14312;52.614;13.496;2023-10-13T04:58:53;100533.88;;;17.24;72.94
26697;BME280;14312;52.614;13.496;2023-10-13T05:01:58;100537.84;;;17.27;72.94
26697;BME280;14312;52.614;13.496;2023-10-13T05:05:10;100541.31;;;17.32;73.01
26697;BME280;14312;52.614;13.496;2023-10-13T05:08:07;100537.28;;;17.30;73.14
26697;BME280;14312;52.614;13.496;2023-10-13T05:11:12;100523.53;;;17.31;73.25
26697;BME280;14312;52.614;13.496;2023-10-13T05:14:16;100531.00;;;17.39;73.34
26697;BME280;14312;52.614;13.496;2023-10-13T05:17:21;100532.59;;;17.40;73.46
26697;BME280;14312;52.614;13.496;2023-10-13T05:20:26;100534.19;;;17.41;73.50
26697;BME280;14312;52.614;13.496;2023-10-13T05:23:30;100529.94;;;17.35;73.12
26697;BME280;14312;52.614;13.496;2023-10-13T05:26:39;100532.59;;;17.40;73.22
26697;BME280;14312;52.614;13.496;2023-10-13T05:29:45;100519.63;;;17.42;73.17
26697;BME280;14312;52.614;13.496;2023-10-13T05:32:51;100519.00;;;17.50;73.34
26697;BME280;14312;52.614;13.496;2023-10-13T05:35:56;100515.28;;;17.46;73.28
26697;BME280;14312;52.614;13.496;2023-10-13T05:39:01;100511.50;;;17.47;73.44
26697;BME280;14312;52.614;13.496;2023-10-13T05:42:05;100515.50;;;17.50;73.25
26697;BME280;14312;52.614;13.496;2023-10-13T05:45:10;100528.34;;;17.58;73.62
26697;BME280;14312;52.614;13.496;2023-10-13T05:48:02;100527.22;;;17.64;73.45
26697;BME280;14312;52.614;13.496;2023-10-13T05:50:49;100521.28;;;17.62;73.74
26697;BME280;14312;52.614;13.496;2023-10-13T05:53:43;100513.50;;;17.60;73.81
26697;BME280;14312;52.614;13.496;2023-10-13T05:56:51;100508.25;;;17.69;73.80
26697;BME280;14312;52.614;13.496;2023-10-13T05:59:56;100517.09;;;17.75;74.03
26697;BME280;14312;52.614;13.496;2023-10-13T06:03:00;100511.47;;;17.71;73.94
26697;BME280;14312;52.614;13.496;2023-10-13T06:06:07;100502.53;;;17.76;74.23
26697;BME280;14312;52.614;13.496;2023-10-13T06:09:11;100516.75;;;17.81;74.11
26697;BME280;14312;52.614;13.496;2023-10-13T06:12:16;100493.28;;;17.82;74.14
26697;BME280;14312;52.614;13.496;2023-10-13T06:15:20;100488.81;;;17.91;74.34
26697;BME280;14312;52.614;13.496;2023-10-13T06:18:25;100495.78;;;17.97;74.55
26697;BME280;14312;52.614;13.496;2023-10-13T06:21:29;100492.47;;;18.00;74.32
26697;BME280;14312;52.614;13.496;2023-10-13T06:24:34;100492.34;;;18.10;74.42
26697;BME280;14312;52.614;13.496;2023-10-13T06:27:39;100495.94;;;18.19;74.39
26697;BME280;14312;52.614;13.496;2023-10-13T06:30:53;100483.19;;;18.25;74.18
26697;BME280;14312;52.614;13.496;2023-10-13T06:33:42;100490.41;;;18.29;74.01
26697;BME280;14312;52.614;13.496;2023-10-13T06:36:30;100496.03;;;18.33;74.04
26697;BME280;14312;52.614;13.496;2023-10-13T06:39:16;100481.94;;;18.36;73.89
26697;BME280;14312;52.614;13.496;2023-10-13T06:42:21;100487.88;;;18.52;73.79
26697;BME280;14312;52.614;13.496;2023-10-13T06:45:07;100477.66;;;18.49;73.88
26697;BME280;14312;52.614;13.496;2023-10-13T06:47:57;100481.88;;;18.55;73.78
26697;BME280;14312;52.614;13.496;2023-10-13T06:50:48;100476.91;;;18.62;73.74
26697;BME280;14312;52.614;13.496;2023-10-13T06:53:35;100484.66;;;18.68;73.76
26697;BME280;14312;52.614;13.496;2023-10-13T06:56:24;100464.97;;;18.68;73.90
26697;BME280;14312;52.614;13.496;2023-10-13T06:59:13;100487.53;;;18.72;73.80
26697;BME280;14312;52.614;13.496;2023-10-13T07:01:59;100470.53;;;18.71;73.40
26697;BME280;14312;52.614;13.496;2023-10-13T07:04:51;100466.34;;;18.79;73.60
26697;BME280;14312;52.614;13.496;2023-10-13T07:07:43;100478.06;;;18.88;73.53
26697;BME280;14312;52.614;13.496;2023-10-13T07:10:30;100470.78;;;18.89;73.51
26697;BME280;14312;52.614;13.496;2023-10-13T07:13:18;100476.78;;;18.99;74.06
26697;BME280;14312;52.614;13.496;2023-10-13T07:16:06;100470.56;;;19.12;73.64
26697;BME280;14312;52.614;13.496;2023-10-13T07:18:58;100475.78;;;19.23;73.41
26697;BME280;14312;52.614;13.496;2023-10-13T07:21:50;100471.66;;;19.39;73.27
26697;BME280;14312;52.614;13.496;2023-10-13T07:24:45;100464.16;;;19.36;72.86
26697;BME280;14312;52.614;13.496;2023-10-13T07:27:34;100474.75;;;19.46;72.69
26697;BME280;14312;52.614;13.496;2023-10-13T07:30:21;100472.66;;;19.57;72.66
26697;BME280;14312;52.614;13.496;2023-10-13T07:33:12;100464.75;;;19.60;72.34
26697;BME280;14312;52.614;13.496;2023-10-13T07:36:03;100454.75;;;19.61;72.42
26697;BME280;14312;52.614;13.496;2023-10-13T07:38:57;100456.03;;;19.63;72.22
26697;BME280;14312;52.614;13.496;2023-10-13T07:42:00;100454.06;;;19.77;72.18
26697;BME280;14312;52.614;13.496;2023-10-13T07:45:12;100445.66;;;19.79;71.78
26697;BME280;14312;52.614;13.496;2023-10-13T07:47:58;100447.66;;;19.87;71.61
26697;BME280;14312;52.614;13.496;2023-10-13T07:50:59;100446.84;;;19.86;71.38
26697;BME280;14312;52.614;13.496;2023-10-13T07:53:47;100449.41;;;19.91;71.57
26697;BME280;14312;52.614;13.496;2023-10-13T07:56:38;100447.72;;;19.96;71.97
26697;BME280;14312;52.614;13.496;2023-10-13T07:59:25;100461.50;;;20.08;71.65
26697;BME280;14312;52.614;13.496;2023-10-13T08:02:20;100437.63;;;20.10;71.14
26697;BME280;14312;52.614;13.496;2023-10-13T08:05:30;100446.94;;;20.17;71.13
26697;BME280;14312;52.614;13.496;2023-10-13T08:08:37;100446.50;;;20.24;70.76
26697;BME280;14312;52.614;13.496;2023-10-13T08:11:26;100437.06;;;20.21;70.89
26697;BME280;14312;52.614;13.496;2023-10-13T08:14:20;100441.94;;;20.33;70.61
26697;BME280;14312;52.614;13.496;2023-10-13T08:17:09;100436.53;;;20.33;70.39
26697;BME280;14312;52.614;13.496;2023-10-13T08:19:56;100430.50;;;20.36;70.04
26697;BME280;14312;52.614;13.496;2023-10-13T08:22:42;100449.94;;;20.38;69.98
26697;BME280;14312;52.614;13.496;2023-10-13T08:25:35;100448.22;;;20.42;70.21
26697;BME280;14312;52.614;13.496;2023-10-13T08:28:47;100425.31;;;20.48;70.53
26697;BME280;14312;52.614;13.496;2023-10-13T08:31:39;100420.38;;;20.50;70.19
26697;BME280;14312;52.614;13.496;2023-10-13T08:34:28;100406.22;;;20.53;70.22
26697;BME280;14312;52.614;13.496;2023-10-13T08:37:15;100418.38;;;20.64;69.61
26697;BME280;14312;52.614;13.496;2023-10-13T08:40:13;100416.63;;;20.68;69.86
26697;BME280;14312;52.614;13.496;2023-10-13T08:43:18;100412.69;;;20.75;69.84
26697;BME280;14312;52.614;13.496;2023-10-13T08:46:04;100409.84;;;20.80;69.34
26697;BME280;14312;52.614;13.496;2023-10-13T08:48:55;100413.41;;;20.89;69.35
26697;BME280;14312;52.614;13.496;2023-10-13T08:51:50;100393.44;;;20.85;69.15
26697;BME280;14312;52.614;13.496;2023-10-13T08:54:56;100389.13;;;20.84;69.29
26697;BME280;14312;52.614;13.496;2023-10-13T08:58:00;100397.13;;;20.89;69.41
26697;BME280;14312;52.614;13.496;2023-10-13T09:00:59;100383.44;;;20.94;68.74
26697;BME280;14312;52.614;13.496;2023-10-13T09:03:58;100377.38;;;20.97;68.44
26697;BME280;14312;52.614;13.496;2023-10-13T09:07:04;100382.19;;;21.00;68.94
26697;BME280;14312;52.614;13.496;2023-10-13T09:09:51;100365.91;;;21.00;68.89
26697;BME280;14312;52.614;13.496;2023-10-13T09:12:37;100380.25;;;21.00;68.72
26697;BME280;14312;52.614;13.496;2023-10-13T09:15:29;100369.44;;;21.09;68.43
26697;BME280;14312;52.614;13.496;2023-10-13T09:18:35;100374.88;;;21.09;68.59
26697;BME280;14312;52.614;13.496;2023-10-13T09:21:40;100364.03;;;21.09;68.48
26697;BME280;14312;52.614;13.496;2023-10-13T09:24:26;100357.00;;;21.08;68.52
26697;BME280;14312;52.614;13.496;2023-10-13T09:27:17;100355.75;;;21.14;68.69
26697;BME280;14312;52.614;13.496;2023-10-13T09:30:04;100359.91;;;21.20;68.85
26697;BME280;14312;52.614;13.496;2023-10-13T09:33:10;100354.50;;;21.20;68.80
26697;BME280;14312;52.614;13.496;2023-10-13T09:36:02;100340.59;;;21.13;68.85
26697;BME280;14312;52.614;13.496;2023-10-13T09:38:50;100346.38;;;21.20;68.71
26697;BME280;14312;52.614;13.496;2023-10-13T09:41:57;100335.66;;;21.15;68.68
26697;BME280;14312;52.614;13.496;2023-10-13T09:44:43;100325.78;;;21.19;68.55
26697;BME280;14312;52.614;13.496;2023-10-13T09:47:35;100321.66;;;21.22;68.62
26697;BME280;14312;52.614;13.496;2023-10-13T09:50:27;100320.38;;;21.19;68.81
26697;BME280;14312;52.614;13.496;2023-10-13T09:53:19;100301.09;;;21.21;68.91
26697;BME280;14312;52.614;13.496;2023-10-13T09:56:18;100299.66;;;21.23;68.36
26697;BME280;14312;52.614;13.496;2023-10-13T09:59:11;100308.75;;;21.36;68.37
26697;BME280;14312;52.614;13.496;2023-10-13T10:02:01;100292.00;;;21.34;68.36
26697;BME280;14312;52.614;13.496;2023-10-13T10:04:55;100282.59;;;21.31;68.48
26697;BME280;14312;52.614;13.496;2023-10-13T10:07:58;100276.03;;;21.32;68.37
26697;BME280;14312;52.614;13.496;2023-10-13T10:14:10;100266.19;;;21.36;68.58
26697;BME280;14312;52.614;13.496;2023-10-13T10:17:08;100274.13;;;21.33;68.48
26697;BME280;14312;52.614;13.496;2023-10-13T10:19:55;100272.88;;;21.30;68.78
26697;BME280;14312;52.614;13.496;2023-10-13T10:22:42;100270.00;;;21.35;69.13
26697;BME280;14312;52.614;13.496;2023-10-13T10:25:35;100277.00;;;21.36;68.74
26697;BME280;14312;52.614;13.496;2023-10-13T10:28:21;100265.19;;;21.32;68.76
26697;BME280;14312;52.614;13.496;2023-10-13T10:31:08;100265.50;;;21.39;69.05
26697;BME280;14312;52.614;13.496;2023-10-13T10:34:15;100265.50;;;21.39;68.87
26697;BME280;14312;52.614;13.496;2023-10-13T10:37:04;100266.97;;;21.45;69.29
26697;BME280;14312;52.614;13.496;2023-10-13T10:39:54;100260.09;;;21.39;69.32
26697;BME280;14312;52.614;13.496;2023-10-13T10:42:43;100277.31;;;21.43;69.49
26697;BME280;14312;52.614;13.496;2023-10-13T10:45:29;100270.00;;;21.35;69.62
26697;BME280;14312;52.614;13.496;2023-10-13T10:48:19;100278.94;;;21.44;69.79
26697;BME280;14312;52.614;13.496;2023-10-13T10:51:06;100265.84;;;21.29;70.10
26697;BME280;14312;52.614;13.496;2023-10-13T10:54:06;100247.06;;;21.24;70.17
26697;BME280;14312;52.614;13.496;2023-10-13T10:56:59;100236.00;;;21.12;70.80
26697;BME280;14312;52.614;13.496;2023-10-13T10:59:58;100244.63;;;21.14;71.57
26697;BME280;14312;52.614;13.496;2023-10-13T11:03:02;100216.72;;;21.05;72.25
26697;BME280;14312;52.614;13.496;2023-10-13T11:05:50;100210.69;;;21.08;72.91
26697;BME280;14312;52.614;13.496;2023-10-13T11:08:36;100204.28;;;21.04;73.23
26697;BME280;14312;52.614;13.496;2023-10-13T11:11:30;100199.53;;;21.01;73.53
26697;BME280;14312;52.614;13.496;2023-10-13T11:14:28;100217.38;;;21.02;73.78
26697;BME280;14312;52.614;13.496;2023-10-13T11:17:21;100194.44;;;21.08;73.99
26697;BME280;14312;52.614;13.496;2023-10-13T11:20:12;100208.59;;;21.14;74.44
26697;BME280;14312;52.614;13.496;2023-10-13T11:23:11;100193.66;;;21.16;74.29
26697;BME280;14312;52.614;13.496;2023-10-13T11:25:58;100195.72;;;21.19;74.54
26697;BME280;14312;52.614;13.496;2023-10-13T11:28:50;100200.81;;;21.29;74.35
26697;BME280;14312;52.614;13.496;2023-10-13T11:31:36;100182.47;;;21.26;74.50
26697;BME280;14312;52.614;13.496;2023-10-13T11:34:23;100215.16;;;21.38;74.42
26697;BME280;14312;52.614;13.496;2023-10-13T11:37:10;100188.50;;;21.40;74.15
26697;BME280;14312;52.614;13.496;2023-10-13T11:40:23;100185.44;;;21.51;73.97
26697;BME280;14312;52.614;13.496;2023-10-13T11:43:27;100168.50;;;21.54;73.95
26697;BME280;14312;52.614;13.496;2023-10-13T11:46:14;100172.16;;;21.66;73.26
26697;BME280;14312;52.614;13.496;2023-10-13T11:49:19;100163.66;;;21.68;73.08
26697;BME280;14312;52.614;13.496;2023-10-13T11:52:10;100154.41;;;21.69;73.13
26697;BME280;14312;52.614;13.496;2023-10-13T11:55:03;100148.84;;;21.74;72.48
26697;BME280;14312;52.614;13.496;2023-10-13T11:57:50;100152.75;;;21.85;72.32
26697;BME280;14312;52.614;13.496;2023-10-13T12:00:36;100161.66;;;21.94;72.28
26697;BME280;14312;52.614;13.496;2023-10-13T12:03:48;100153.34;;;21.99;72.19
26697;BME280;14312;52.614;13.496;2023-10-13T12:07:01;100146.50;;;22.02;71.94
26697;BME280;14312;52.614;13.496;2023-10-13T12:10:06;100130.34;;;22.05;72.00
26697;BME280;14312;52.614;13.496;2023-10-13T12:13:01;100121.88;;;22.07;71.34
26697;BME280;14312;52.614;13.496;2023-10-13T12:15:51;100127.09;;;22.12;71.16
26697;BME280;14312;52.614;13.496;2023-10-13T12:18:38;100125.44;;;22.19;71.14
26697;BME280;14312;52.614;13.496;2023-10-13T12:21:24;100109.31;;;22.23;70.83
26697;BME280;14312;52.614;13.496;2023-10-13T12:24:10;100113.94;;;22.22;71.08
26697;BME280;14312;52.614;13.496;2023-10-13T12:27:08;100115.13;;;22.34;70.84
26697;BME280;14312;52.614;13.496;2023-10-13T12:30:20;100103.16;;;22.35;70.56
26697;BME280;14312;52.614;13.496;2023-10-13T12:33:21;100115.66;;;22.48;70.15
26697;BME280;14312;52.614;13.496;2023-10-13T12:36:10;100102.56;;;22.50;70.34
26697;BME280;14312;52.614;13.496;2023-10-13T12:38:59;100084.66;;;22.49;69.95
26697;BME280;14312;52.614;13.496;2023-10-13T12:41:54;100086.50;;;22.57;69.85
26697;BME280;14312;52.614;13.496;2023-10-13T12:44:58;100082.94;;;22.65;69.51
26697;BME280;14312;52.614;13.496;2023-10-13T12:48:03;100091.00;;;22.74;69.07
26697;BME280;14312;52.614;13.496;2023-10-13T12:51:08;100069.13;;;22.70;69.21
26697;BME280;14312;52.614;13.496;2023-10-13T12:54:06;100061.38;;;22.81;69.51
26697;BME280;14312;52.614;13.496;2023-10-13T12:57:14;100065.81;;;22.85;68.95
26697;BME280;14312;52.614;13.496;2023-10-13T13:00:01;100070.16;;;22.98;68.28
26697;BME280;14312;52.614;13.496;2023-10-13T13:03:02;100061.53;;;22.96;68.56
26697;BME280;14312;52.614;13.496;2023-10-13T13:05:57;100046.38;;;23.08;68.73
26697;BME280;14312;52.614;13.496;2023-10-13T13:08:44;100034.16;;;23.14;67.92
26697;BME280;14312;52.614;13.496;2023-10-13T13:11:30;100019.44;;;23.15;67.90
26697;BME280;14312;52.614;13.496;2023-10-13T13:14:16;100008.78;;;23.22;67.54
26697;BME280;14312;52.614;13.496;2023-10-13T13:17:02;100010.72;;;23.33;67.63
26697;BME280;14312;52.614;13.496;2023-10-13T13:19:51;100005.25;;;23.46;67.00
26697;BME280;14312;52.614;13.496;2023-10-13T13:22:39;100008.44;;;23.60;66.39
26697;BME280;14312;52.614;13.496;2023-10-13T13:25:25;100013.44;;;23.70;66.72
26697;BME280;14312;52.614;13.496;2023-10-13T13:28:15;100003.84;;;23.88;66.40
26697;BME280;14312;52.614;13.496;2023-10-13T13:31:01;99995.56;;;23.97;65.41
26697;BME280;14312;52.614;13.496;2023-10-13T13:33:47;99994.28;;;24.06;64.52
26697;BME280;14312;52.614;13.496;2023-10-13T13:36:33;99993.00;;;24.16;64.20
26697;BME280;14312;52.614;13.496;2023-10-13T13:39:19;99989.38;;;24.24;64.38
26697;BME280;14312;52.614;13.496;2023-10-13T13:42:14;99996.31;;;24.22;64.29
26697;BME280;14312;52.614;13.496;2023-10-13T13:45:03;99980.97;;;24.29;64.26
26697;BME280;14312;52.614;13.496;2023-10-13T13:47:54;99981.38;;;24.31;63.66
26697;BME280;14312;52.614;13.496;2023-10-13T13:50:41;99974.81;;;24.32;63.39
26697;BME280;14312;52.614;13.496;2023-10-13T13:53:27;99982.72;;;24.37;63.41
26697;BME280;14312;52.614;13.496;2023-10-13T13:56:17;99972.63;;;24.38;63.95
26697;BME280;14312;52.614;13.496;2023-10-13T13:59:04;99969.06;;;24.49;64.07
26697;BME280;14312;52.614;13.496;2023-10-13T14:01:54;99953.69;;;24.73;63.70
26697;BME280;14312;52.614;13.496;2023-10-13T14:04:46;99965.59;;;24.96;62.80
26697;BME280;14312;52.614;13.496;2023-10-13T14:07:32;99958.81;;;25.06;62.28
26697;BME280;14312;52.614;13.496;2023-10-13T14:10:19;99954.16;;;25.22;61.17
26697;BME280;14312;52.614;13.496;2023-10-13T14:13:17;99937.56;;;25.30;60.75
26697;BME280;14312;52.614;13.496;2023-10-13T14:16:03;99935.81;;;25.22;60.54
26697;BME280;14312;52.614;13.496;2023-10-13T14:18:50;99929.66;;;25.25;60.02
26697;BME280;14312;52.614;13.496;2023-10-13T14:21:38;99920.63;;;25.21;60.27
26697;BME280;14312;52.614;13.496;2023-10-13T14:24:25;99929.94;;;25.20;60.03
26697;BME280;14312;52.614;13.496;2023-10-13T14:27:14;99922.63;;;25.24;59.91
26697;BME280;14312;52.614;13.496;2023-10-13T14:30:08;99935.97;;;25.29;59.75
26697;BME280;14312;52.614;13.496;2023-10-13T14:32:55;99923.38;;;25.41;59.38
26697;BME280;14312;52.614;13.496;2023-10-13T14:35:44;99927.84;;;25.49;59.61
26697;BME280;14312;52.614;13.496;2023-10-13T14:38:32;99922.09;;;25.54;58.73
26697;BME280;14312;52.614;13.496;2023-10-13T14:41:18;99907.75;;;25.57;58.80
26697;BME280;14312;52.614;13.496;2023-10-13T14:44:04;99898.50;;;25.61;58.39
26697;BME280;14312;52.614;13.496;2023-10-13T14:46:51;99896.13;;;25.60;58.20
26697;BME280;14312;52.614;13.496;2023-10-13T14:49:40;99890.31;;;25.61;57.24
26697;BME280;14312;52.614;13.496;2023-10-13T14:52:27;99887.34;;;25.51;57.21
26697;BME280;14312;52.614;13.496;2023-10-13T14:55:17;99883.16;;;25.38;57.52
26697;BME280;14312;52.614;13.496;2023-10-13T14:58:07;99891.63;;;25.32;57.75